createdAt,value
2022-09-06T00:01:10.916Z,21.63
2022-09-06T00:03:40.145Z,21.55
2022-09-06T00:06:09.962Z,21.54
2022-09-06T00:08:37.899Z,21.47
2022-09-06T00:11:05.893Z,21.46
2022-09-06T00:13:33.937Z,21.44
2022-09-06T00:16:07.135Z,21.39
2022-09-06T00:18:34.893Z,21.32
2022-09-06T00:21:04.018Z,21.19
2022-09-06T00:23:34.257Z,21.29
2022-09-06T00:26:05.654Z,21.21
2022-09-06T00:28:33.425Z,21.15
2022-09-06T00:31:10.246Z,21.11
2022-09-06T00:33:38.611Z,21.12
2022-09-06T00:36:08.041Z,21.07
2022-09-06T00:38:35.949Z,20.88
2022-09-06T00:41:03.686Z,20.91
2022-09-06T00:43:31.361Z,20.94
2022-09-06T00:45:59.217Z,20.85
2022-09-06T00:48:27.195Z,20.89
2022-09-06T00:50:57.392Z,20.80
2022-09-06T00:53:27.278Z,20.83
2022-09-06T00:55:55.146Z,20.74
2022-09-06T00:58:23.395Z,20.61
2022-09-06T01:00:54.191Z,20.63
2022-09-06T01:03:23.015Z,20.62
2022-09-06T01:05:58.906Z,20.60
2022-09-06T01:08:38.805Z,20.61
2022-09-06T01:11:23.465Z,20.50
2022-09-06T01:13:57.123Z,20.47
2022-09-06T01:16:31.186Z,20.51
2022-09-06T01:19:15.324Z,20.45
2022-09-06T01:21:48.242Z,20.48
2022-09-06T01:24:44.267Z,20.39
2022-09-06T01:27:56.335Z,20.28
2022-09-06T01:30:25.886Z,20.17
2022-09-06T01:32:57.714Z,20.04
2022-09-06T01:35:29.587Z,20.04
2022-09-06T01:37:58.006Z,20.10
2022-09-06T01:40:26.109Z,20.08
2022-09-06T01:42:54.295Z,20.00
2022-09-06T01:45:27.233Z,20.05
2022-09-06T01:48:03.405Z,20.12
2022-09-06T01:50:44.409Z,20.13
2022-09-06T01:53:25.501Z,19.98
2022-09-06T01:55:58.277Z,20.08
2022-09-06T01:58:53.410Z,20.00
2022-09-06T02:01:28.441Z,20.03
2022-09-06T02:04:00.665Z,19.91
2022-09-06T02:06:30.869Z,20.01
2022-09-06T02:09:03.044Z,19.92
2022-09-06T02:11:35.311Z,20.00
2022-09-06T02:14:07.425Z,19.99
2022-09-06T02:16:40.720Z,19.90
2022-09-06T02:19:13.589Z,19.96
2022-09-06T02:21:45.207Z,20.08
2022-09-06T02:24:16.721Z,19.96
2022-09-06T02:26:45.064Z,19.87
2022-09-06T02:29:12.986Z,19.99
2022-09-06T02:31:44.539Z,19.93
2022-09-06T02:34:15.150Z,20.01
2022-09-06T02:36:42.934Z,20.03
2022-09-06T02:39:11.007Z,20.15
2022-09-06T02:41:39.700Z,20.23
2022-09-06T02:44:07.437Z,20.09
2022-09-06T02:46:35.045Z,20.16
2022-09-06T02:49:04.325Z,20.15
2022-09-06T02:51:32.107Z,20.23
2022-09-06T02:53:59.789Z,20.20
2022-09-06T02:56:27.485Z,20.26
2022-09-06T02:58:55.485Z,20.21
2022-09-06T03:01:25.406Z,20.16
2022-09-06T03:03:53.226Z,20.17
2022-09-06T03:06:22.446Z,20.15
2022-09-06T03:08:50.501Z,20.07
2022-09-06T03:11:18.544Z,20.02
2022-09-06T03:13:46.295Z,20.02
2022-09-06T03:16:14.488Z,20.12
2022-09-06T03:18:42.170Z,20.01
2022-09-06T03:21:09.854Z,20.02
2022-09-06T03:23:39.852Z,20.04
2022-09-06T03:26:07.642Z,19.95
2022-09-06T03:28:35.391Z,20.14
2022-09-06T03:31:03.142Z,20.22
2022-09-06T03:33:31.035Z,20.20
2022-09-06T03:36:00.421Z,20.27
2022-09-06T03:38:29.457Z,20.42
2022-09-06T03:40:58.797Z,20.39
2022-09-06T03:43:27.281Z,19.86
2022-09-06T03:45:57.216Z,19.77
2022-09-06T03:48:26.744Z,19.99
2022-09-06T03:50:56.057Z,20.23
2022-09-06T03:53:24.749Z,20.42
2022-09-06T03:55:54.191Z,20.53
2022-09-06T03:58:25.041Z,20.50
2022-09-06T04:01:01.325Z,20.64
2022-09-06T04:03:29.050Z,20.85
2022-09-06T04:05:56.748Z,20.93
2022-09-06T04:08:27.696Z,20.94
2022-09-06T04:10:56.013Z,20.97
2022-09-06T04:13:25.430Z,21.07
2022-09-06T04:15:53.415Z,20.84
2022-09-06T04:18:22.368Z,20.52
2022-09-06T04:20:51.355Z,20.63
2022-09-06T04:23:20.078Z,20.69
2022-09-06T04:25:48.645Z,20.62
2022-09-06T04:28:18.248Z,20.31
2022-09-06T04:30:53.133Z,20.08
2022-09-06T04:33:21.155Z,19.93
2022-09-06T04:35:50.586Z,19.71
2022-09-06T04:38:18.249Z,19.65
2022-09-06T04:40:45.894Z,19.62
2022-09-06T04:43:13.842Z,19.57
2022-09-06T04:45:42.363Z,19.61
2022-09-06T04:48:11.635Z,19.56
2022-09-06T04:50:39.379Z,19.61
2022-09-06T04:53:07.666Z,19.49
2022-09-06T04:55:36.045Z,19.35
2022-09-06T04:58:04.514Z,19.41
2022-09-06T05:00:33.503Z,19.41
2022-09-06T05:03:01.219Z,19.48
2022-09-06T05:05:30.261Z,19.22
2022-09-06T05:07:58.254Z,19.22
2022-09-06T05:10:27.072Z,19.20
2022-09-06T05:12:55.392Z,19.31
2022-09-06T05:15:24.229Z,19.40
2022-09-06T05:17:51.967Z,19.29
2022-09-06T05:20:19.777Z,19.38
2022-09-06T05:22:55.107Z,19.43
2022-09-06T05:25:22.867Z,19.47
2022-09-06T05:27:50.610Z,19.42
2022-09-06T05:30:19.637Z,19.35
2022-09-06T05:32:47.337Z,19.47
2022-09-06T05:35:15.010Z,19.49
2022-09-06T05:37:42.717Z,19.36
2022-09-06T05:40:12.358Z,19.43
2022-09-06T05:42:40.979Z,19.54
2022-09-06T05:45:09.198Z,19.54
2022-09-06T05:47:36.864Z,19.59
2022-09-06T05:50:05.051Z,19.69
2022-09-06T05:52:33.849Z,19.59
2022-09-06T05:55:02.276Z,19.62
2022-09-06T05:57:31.318Z,19.64
2022-09-06T05:59:59.227Z,19.73
2022-09-06T06:02:26.993Z,19.76
2022-09-06T06:04:55.477Z,19.67
2022-09-06T06:07:23.200Z,19.69
2022-09-06T06:09:50.952Z,19.55
2022-09-06T06:12:18.665Z,19.72
2022-09-06T06:14:47.781Z,19.78
2022-09-06T06:17:16.268Z,19.96
2022-09-06T06:19:43.970Z,20.11
2022-09-06T06:22:11.669Z,19.76
2022-09-06T06:24:39.626Z,20.14
2022-09-06T06:27:07.445Z,20.46
2022-09-06T06:29:35.143Z,20.65
2022-09-06T06:32:04.904Z,20.82
2022-09-06T06:34:32.608Z,20.97
2022-09-06T06:37:00.348Z,21.12
2022-09-06T06:39:28.134Z,21.30
2022-09-06T06:41:55.902Z,21.42
2022-09-06T06:44:46.502Z,21.60
2022-09-06T06:47:15.938Z,21.66
2022-09-06T06:49:43.555Z,21.71
2022-09-06T06:52:11.794Z,21.81
2022-09-06T06:54:39.412Z,21.84
2022-09-06T06:57:09.322Z,21.98
2022-09-06T06:59:37.006Z,22.10
2022-09-06T07:02:04.778Z,22.38
2022-09-06T07:04:33.937Z,22.48
2022-09-06T07:12:37.593Z,22.20
2022-09-06T07:15:06.306Z,22.52
2022-09-06T07:17:34.606Z,22.77
2022-09-06T07:22:39.134Z,23.22
2022-09-06T07:25:08.276Z,23.34
2022-09-06T07:27:51.320Z,23.58
2022-09-06T07:30:19.981Z,23.78
2022-09-06T07:32:48.065Z,23.94
2022-09-06T07:35:17.356Z,24.29
2022-09-06T07:37:45.038Z,24.19
2022-09-06T07:40:12.825Z,24.18
2022-09-06T07:42:40.677Z,23.73
2022-09-06T07:45:09.526Z,23.73
2022-09-06T07:53:26.015Z,23.91
2022-09-06T07:55:58.048Z,23.84
2022-09-06T07:58:25.927Z,23.74
2022-09-06T08:00:53.680Z,23.61
2022-09-06T08:03:21.423Z,23.53
2022-09-06T08:06:08.465Z,23.51
2022-09-06T08:11:25.339Z,23.28
2022-09-06T08:13:55.574Z,23.05
2022-09-06T08:16:24.339Z,23.18
2022-09-06T08:18:53.463Z,23.24
2022-09-06T08:21:24.474Z,23.23
2022-09-06T08:23:53.320Z,22.94
2022-09-06T08:26:22.406Z,23.20
2022-09-06T08:28:54.249Z,23.31
2022-09-06T08:31:21.970Z,23.43
2022-09-06T08:33:49.750Z,23.63
2022-09-06T08:36:17.446Z,23.82
2022-09-06T08:38:46.630Z,24.14
2022-09-06T08:41:24.822Z,24.46
2022-09-06T08:46:53.331Z,24.92
2022-09-06T08:49:21.234Z,25.32
2022-09-06T08:52:21.551Z,25.56
2022-09-06T08:54:56.418Z,25.70
2022-09-06T08:57:40.241Z,25.63
2022-09-06T09:00:11.257Z,25.74
2022-09-06T09:02:44.769Z,25.80
2022-09-06T09:05:20.925Z,26.30
2022-09-06T09:07:53.975Z,26.53
2022-09-06T09:10:27.122Z,26.85
2022-09-06T09:12:54.965Z,27.11
2022-09-06T09:15:22.887Z,26.83
2022-09-06T09:17:51.895Z,26.75
2022-09-06T09:20:20.114Z,26.39
2022-09-06T09:22:47.888Z,26.54
2022-09-06T09:25:19.993Z,26.85
2022-09-06T09:27:50.200Z,27.27
2022-09-06T09:33:22.289Z,28.48
2022-09-06T09:35:50.210Z,28.77
2022-09-06T09:38:21.816Z,29.06
2022-09-06T09:40:54.510Z,28.76
2022-09-06T09:43:25.457Z,28.80
2022-09-06T09:46:11.380Z,28.96
2022-09-06T09:48:39.820Z,29.00
2022-09-06T09:51:26.536Z,28.69
2022-09-06T09:53:56.695Z,28.79
2022-09-06T09:56:40.292Z,28.93
2022-09-06T09:59:20.415Z,29.09
2022-09-06T10:01:48.567Z,29.12
2022-09-06T10:07:10.427Z,29.53
2022-09-06T10:09:39.685Z,29.30
2022-09-06T10:12:07.598Z,29.35
2022-09-06T10:14:41.924Z,29.68
2022-09-06T10:17:09.830Z,29.86
2022-09-06T10:19:40.946Z,29.80
2022-09-06T10:22:24.648Z,30.20
2022-09-06T10:25:22.445Z,30.15
2022-09-06T10:28:12.144Z,30.04
2022-09-06T10:30:45.903Z,30.25
2022-09-06T10:33:22.648Z,30.43
2022-09-06T10:35:50.277Z,30.32
2022-09-06T10:38:32.422Z,30.68
2022-09-06T10:41:11.519Z,30.54
2022-09-06T10:43:43.975Z,30.44
2022-09-06T10:46:18.620Z,30.66
2022-09-06T10:48:46.890Z,30.54
2022-09-06T10:51:18.875Z,30.54
2022-09-06T10:53:50.620Z,30.49
2022-09-06T10:56:22.152Z,30.87
2022-09-06T11:01:46.792Z,30.42
2022-09-06T11:04:20.169Z,30.54
2022-09-06T11:06:52.311Z,30.82
2022-09-06T11:09:24.653Z,30.70
2022-09-06T11:11:59.632Z,31.08
2022-09-06T11:14:29.261Z,31.25
2022-09-06T11:17:02.073Z,31.37
2022-09-06T11:19:33.555Z,31.28
2022-09-06T11:22:28.573Z,31.34
2022-09-06T11:25:18.704Z,31.23
2022-09-06T11:27:48.021Z,31.53
2022-09-06T11:30:16.893Z,31.46
2022-09-06T11:32:48.875Z,31.40
2022-09-06T11:35:23.838Z,31.43
2022-09-06T11:38:00.378Z,31.56
2022-09-06T11:40:29.604Z,31.68
2022-09-06T11:43:16.113Z,31.68
2022-09-06T11:45:49.938Z,32.09
2022-09-06T11:48:37.366Z,32.01
2022-09-06T11:51:10.937Z,31.93
2022-09-06T11:54:17.895Z,31.61
2022-09-06T11:56:54.372Z,31.19
2022-09-06T11:59:31.060Z,30.98
2022-09-06T12:02:03.541Z,30.80
2022-09-06T12:05:09.370Z,30.52
2022-09-06T12:07:39.001Z,30.89
2022-09-06T12:10:45.222Z,31.47
2022-09-06T12:13:34.445Z,31.88
2022-09-06T12:16:02.125Z,32.30
2022-09-06T12:18:55.401Z,32.47
2022-09-06T12:21:35.300Z,32.57
2022-09-06T12:24:05.264Z,31.15
2022-09-06T12:26:55.637Z,30.51
2022-09-06T12:29:26.447Z,30.56
2022-09-06T12:31:55.762Z,30.86
2022-09-06T12:34:25.282Z,30.89
2022-09-06T12:36:56.377Z,30.75
2022-09-06T12:39:25.599Z,30.64
2022-09-06T12:41:56.558Z,30.54
2022-09-06T12:44:33.059Z,31.07
2022-09-06T12:47:09.003Z,31.60
2022-09-06T12:49:36.623Z,32.08
2022-09-06T12:52:09.197Z,32.58
2022-09-06T12:54:45.417Z,33.15
2022-09-06T12:57:14.897Z,33.57
2022-09-06T12:59:48.777Z,34.13
2022-09-06T13:02:19.219Z,34.16
2022-09-06T13:04:48.846Z,33.51
2022-09-06T13:07:18.789Z,33.61
2022-09-06T13:09:51.890Z,33.55
2022-09-06T13:12:26.206Z,33.89
2022-09-06T13:14:55.099Z,34.76
2022-09-06T13:17:27.558Z,34.88
2022-09-06T13:19:55.325Z,34.58
2022-09-06T13:22:40.525Z,35.01
2022-09-06T13:25:20.345Z,34.93
2022-09-06T13:27:51.020Z,34.62
2022-09-06T13:30:33.552Z,34.70
2022-09-06T13:33:01.445Z,35.13
2022-09-06T13:35:30.920Z,35.11
2022-09-06T13:38:20.922Z,35.58
2022-09-06T13:41:11.606Z,35.84
2022-09-06T13:43:43.273Z,35.85
2022-09-06T13:46:11.925Z,36.09
2022-09-06T13:48:40.564Z,35.60
2022-09-06T13:51:08.809Z,35.63
2022-09-06T13:53:36.993Z,35.79
2022-09-06T13:56:08.783Z,35.67
2022-09-06T13:58:36.858Z,35.83
2022-09-06T14:01:08.449Z,35.49
2022-09-06T14:03:37.345Z,34.97
2022-09-06T14:06:05.341Z,34.97
2022-09-06T14:08:49.702Z,34.93
2022-09-06T14:11:23.229Z,34.71
2022-09-06T14:13:50.864Z,34.69
2022-09-06T14:16:18.550Z,34.57
2022-09-06T14:18:46.285Z,34.49
2022-09-06T14:21:14.094Z,34.63
2022-09-06T14:23:42.102Z,35.10
2022-09-06T14:26:10.349Z,35.01
2022-09-06T14:28:39.305Z,35.10
2022-09-06T14:31:13.807Z,35.04
2022-09-06T14:33:41.625Z,35.43
2022-09-06T14:36:11.040Z,35.56
2022-09-06T14:38:39.949Z,34.66
2022-09-06T14:41:09.588Z,33.88
2022-09-06T14:43:39.054Z,33.50
2022-09-06T14:46:07.962Z,33.58
2022-09-06T14:48:39.208Z,34.44
2022-09-06T14:51:10.760Z,35.05
2022-09-06T14:53:41.993Z,35.30
2022-09-06T14:56:10.473Z,35.82
2022-09-06T14:58:40.158Z,35.56
2022-09-06T15:01:09.916Z,35.33
2022-09-06T15:03:37.494Z,35.51
2022-09-06T15:06:05.713Z,34.32
2022-09-06T15:08:33.593Z,34.50
2022-09-06T15:11:01.494Z,34.45
2022-09-06T15:13:29.375Z,34.18
2022-09-06T15:15:58.487Z,34.10
2022-09-06T15:18:26.138Z,34.44
2022-09-06T15:20:53.736Z,33.91
2022-09-06T15:23:25.194Z,33.46
2022-09-06T15:25:54.056Z,32.85
2022-09-06T15:28:21.841Z,31.91
2022-09-06T15:30:50.109Z,31.17
2022-09-06T15:33:19.305Z,31.34
2022-09-06T15:35:54.509Z,31.95
2022-09-06T15:38:24.141Z,32.63
2022-09-06T15:40:51.949Z,32.40
2022-09-06T15:43:19.907Z,32.23
2022-09-06T15:45:49.374Z,32.78
2022-09-06T15:48:18.946Z,32.96
2022-09-06T15:50:51.626Z,32.84
2022-09-06T15:53:19.603Z,32.89
2022-09-06T15:55:59.110Z,32.67
2022-09-06T15:58:27.573Z,32.59
2022-09-06T16:01:02.754Z,32.10
2022-09-06T16:03:31.943Z,31.96
2022-09-06T16:08:58.290Z,31.18
2022-09-06T16:11:26.224Z,30.32
2022-09-06T16:13:54.180Z,29.87
2022-09-06T16:16:22.521Z,29.71
2022-09-06T16:18:52.032Z,29.46
2022-09-06T16:21:21.534Z,29.34
2022-09-06T16:23:50.843Z,29.07
2022-09-06T16:26:21.480Z,28.79
2022-09-06T16:28:50.283Z,28.60
2022-09-06T16:31:18.821Z,28.75
2022-09-06T16:33:48.607Z,28.53
2022-09-06T16:36:18.545Z,28.40
2022-09-06T16:38:46.569Z,28.36
2022-09-06T16:41:15.546Z,28.18
2022-09-06T16:43:43.510Z,28.23
2022-09-06T16:46:11.772Z,28.30
2022-09-06T16:48:40.447Z,28.06
2022-09-06T16:51:12.882Z,27.89
2022-09-06T16:53:43.835Z,27.78
2022-09-06T16:56:12.508Z,27.73
2022-09-06T16:58:41.685Z,27.56
2022-09-06T17:01:09.655Z,27.46
2022-09-06T17:03:37.547Z,27.29
2022-09-06T17:06:06.203Z,27.37
2022-09-06T17:08:34.325Z,27.23
2022-09-06T17:11:03.913Z,27.23
2022-09-06T17:13:32.087Z,27.26
2022-09-06T17:16:21.921Z,27.24
2022-09-06T17:18:50.108Z,27.10
2022-09-06T17:21:17.741Z,27.05
2022-09-06T17:23:45.313Z,26.87
2022-09-06T17:26:14.405Z,26.80
2022-09-06T17:28:42.089Z,26.60
2022-09-06T17:31:09.856Z,26.53
2022-09-06T17:33:37.867Z,26.52
2022-09-06T17:36:11.538Z,26.39
2022-09-06T17:38:39.251Z,26.21
2022-09-06T17:41:07.217Z,25.98
2022-09-06T17:43:37.726Z,25.80
2022-09-06T17:46:05.671Z,25.48
2022-09-06T17:48:33.493Z,25.36
2022-09-06T17:51:06.924Z,25.32
2022-09-06T17:53:34.838Z,25.20
2022-09-06T17:56:04.904Z,25.19
2022-09-06T17:58:32.593Z,25.08
2022-09-06T18:01:04.571Z,24.72
2022-09-06T18:03:32.849Z,24.69
2022-09-06T18:06:05.052Z,24.61
2022-09-06T18:08:32.846Z,24.47
2022-09-06T18:11:00.489Z,24.26
2022-09-06T18:13:28.251Z,24.02
2022-09-06T18:15:55.882Z,23.87
2022-09-06T18:18:24.907Z,23.62
2022-09-06T18:20:52.866Z,23.47
2022-09-06T18:23:20.637Z,23.36
2022-09-06T18:25:56.877Z,23.24
2022-09-06T18:28:25.069Z,23.17
2022-09-06T18:30:53.982Z,23.01
2022-09-06T18:33:24.906Z,22.85
2022-09-06T18:35:52.958Z,22.78
2022-09-06T18:38:20.687Z,22.77
2022-09-06T18:40:52.919Z,22.71
2022-09-06T18:43:20.666Z,22.70
2022-09-06T18:45:48.347Z,22.59
2022-09-06T18:48:16.584Z,22.44
2022-09-06T18:50:45.700Z,22.37
2022-09-06T18:53:14.705Z,22.29
2022-09-06T18:55:43.313Z,22.24
2022-09-06T18:58:13.082Z,22.19
2022-09-06T19:00:42.142Z,22.07
2022-09-06T19:03:10.237Z,22.01
2022-09-06T19:05:38.272Z,21.93
2022-09-06T19:08:07.541Z,21.86
2022-09-06T19:10:35.343Z,21.79
2022-09-06T19:13:02.949Z,21.65
2022-09-06T19:15:30.606Z,21.49
2022-09-06T19:17:58.305Z,21.41
2022-09-06T19:20:25.888Z,21.20
2022-09-06T19:22:53.537Z,20.96
2022-09-06T19:25:22.677Z,20.97
2022-09-06T19:27:50.350Z,20.85
2022-09-06T19:30:19.772Z,20.90
2022-09-06T19:32:47.499Z,20.87
2022-09-06T19:35:15.361Z,20.84
2022-09-06T19:37:43.477Z,20.75
2022-09-06T19:40:11.837Z,20.63
2022-09-06T19:42:40.903Z,20.59
2022-09-06T19:45:09.711Z,20.49
2022-09-06T19:47:37.352Z,20.46
2022-09-06T19:50:06.237Z,20.43
2022-09-06T19:52:33.928Z,20.38
2022-09-06T19:55:01.540Z,20.32
2022-09-06T19:57:29.159Z,20.17
2022-09-06T19:59:58.150Z,20.15
2022-09-06T20:02:26.276Z,20.16
2022-09-06T20:04:53.972Z,20.11
2022-09-06T20:07:21.653Z,20.11
2022-09-06T20:09:52.383Z,20.11
2022-09-06T20:12:20.841Z,20.03
2022-09-06T20:14:48.401Z,19.97
2022-09-06T20:17:33.466Z,19.90
2022-09-06T20:20:01.978Z,19.89
2022-09-06T20:22:29.574Z,19.91
2022-09-06T20:24:57.202Z,19.84
2022-09-06T20:27:25.081Z,19.57
2022-09-06T20:29:52.642Z,19.57
2022-09-06T20:32:21.621Z,19.52
2022-09-06T20:34:49.181Z,19.58
2022-09-06T20:37:16.806Z,19.54
2022-09-06T20:39:44.421Z,19.53
2022-09-06T20:42:12.010Z,19.28
2022-09-06T20:44:39.612Z,19.37
2022-09-06T20:47:07.289Z,19.29
2022-09-06T20:49:36.365Z,19.27
2022-09-06T20:52:04.205Z,19.09
2022-09-06T20:54:32.822Z,19.04
2022-09-06T20:57:00.621Z,18.99
2022-09-06T20:59:28.265Z,18.91
2022-09-06T21:01:55.866Z,18.95
2022-09-06T21:04:23.528Z,19.00
2022-09-06T21:06:52.653Z,18.99
2022-09-06T21:09:20.247Z,18.99
2022-09-06T21:11:47.902Z,18.87
2022-09-06T21:14:15.578Z,18.89
2022-09-06T21:16:43.338Z,18.90
2022-09-06T21:19:12.128Z,18.74
2022-09-06T21:21:40.593Z,18.79
2022-09-06T21:24:10.678Z,18.89
2022-09-06T21:26:38.551Z,18.85
2022-09-06T21:29:06.374Z,18.85
2022-09-06T21:31:36.020Z,18.99
2022-09-06T21:34:07.156Z,18.98
2022-09-06T21:36:37.572Z,19.01
2022-09-06T21:39:06.546Z,19.05
2022-09-06T21:41:35.563Z,18.78
2022-09-06T21:44:05.025Z,18.90
2022-09-06T21:46:34.170Z,19.00
2022-09-06T21:49:03.745Z,18.99
2022-09-06T21:51:31.705Z,18.99
2022-09-06T21:53:59.806Z,19.00
2022-09-06T21:56:27.534Z,19.00
2022-09-06T21:58:58.375Z,18.96
2022-09-06T22:01:28.092Z,18.94
2022-09-06T22:03:56.169Z,18.89
2022-09-06T22:06:25.788Z,18.90
2022-09-06T22:08:54.035Z,18.94
2022-09-06T22:11:23.447Z,18.95
2022-09-06T22:13:51.415Z,18.95
2022-09-06T22:16:22.610Z,19.02
2022-09-06T22:18:51.399Z,19.05
2022-09-06T22:21:21.364Z,19.04
2022-09-06T22:23:52.731Z,18.98
2022-09-06T22:26:20.751Z,18.91
2022-09-06T22:28:48.795Z,18.90
2022-09-06T22:31:16.479Z,18.82
2022-09-06T22:33:45.510Z,18.84
2022-09-06T22:36:13.175Z,18.98
2022-09-06T22:38:40.801Z,19.05
2022-09-06T22:41:09.238Z,19.05
2022-09-06T22:43:36.947Z,19.06
2022-09-06T22:46:05.561Z,19.02
2022-09-06T22:48:33.307Z,19.00
2022-09-06T22:51:02.753Z,19.00
2022-09-06T22:53:31.127Z,19.05
2022-09-06T22:55:58.770Z,19.01
2022-09-06T22:58:27.837Z,18.92
2022-09-06T23:00:56.084Z,18.95
2022-09-06T23:03:24.118Z,18.89
2022-09-06T23:05:51.865Z,18.77
2022-09-06T23:08:20.869Z,18.84
2022-09-06T23:10:48.794Z,18.90
2022-09-06T23:13:17.238Z,18.96
2022-09-06T23:15:46.368Z,18.99
2022-09-06T23:18:14.567Z,18.92
2022-09-06T23:20:42.163Z,18.88
2022-09-06T23:23:09.780Z,18.85
2022-09-06T23:25:39.238Z,18.86
2022-09-06T23:28:07.026Z,18.85
2022-09-06T23:30:37.805Z,18.86
2022-09-06T23:33:05.851Z,18.85
2022-09-06T23:35:33.447Z,18.44
2022-09-06T23:38:01.074Z,18.47
2022-09-06T23:40:28.661Z,18.62
2022-09-06T23:42:57.749Z,18.73
2022-09-06T23:45:25.507Z,18.67
2022-09-06T23:47:53.086Z,18.85
2022-09-06T23:50:20.941Z,18.78
2022-09-06T23:52:49.082Z,18.87
2022-09-06T23:55:16.833Z,18.89
2022-09-06T23:57:44.464Z,18.90
